createdAt,value
2018-09-05T00:01:34.468Z,15.00
2018-09-05T00:04:04.568Z,15.00
2018-09-05T00:06:35.204Z,15.00
2018-09-05T00:09:07.168Z,15.00
2018-09-05T00:11:37.903Z,15.00
2018-09-05T00:14:08.714Z,14.90
2018-09-05T00:16:39.008Z,15.00
2018-09-05T00:19:09.104Z,15.00
2018-09-05T00:21:39.388Z,15.00
2018-09-05T00:24:09.424Z,14.90
2018-09-05T00:26:39.563Z,14.90
2018-09-05T00:29:09.598Z,15.00
2018-09-05T00:31:39.750Z,14.90
2018-09-05T00:34:10.120Z,14.90
2018-09-05T00:36:40.236Z,14.90
2018-09-05T00:39:10.677Z,14.90
2018-09-05T00:41:41.131Z,14.90
2018-09-05T00:44:11.647Z,14.80
2018-09-05T00:46:41.754Z,14.80
2018-09-05T00:49:11.989Z,14.70
2018-09-05T00:51:42.305Z,14.70
2018-09-05T00:54:18.917Z,14.70
2018-09-05T00:56:49.017Z,14.60
2018-09-05T00:59:19.201Z,14.60
2018-09-05T01:01:49.276Z,14.60
2018-09-05T01:04:19.383Z,14.60
2018-09-05T01:06:49.472Z,14.50
2018-09-05T01:09:19.536Z,14.50
2018-09-05T01:11:49.618Z,14.40
2018-09-05T01:14:19.700Z,14.40
2018-09-05T01:19:51.577Z,14.40
2018-09-05T01:22:21.680Z,14.40
2018-09-05T01:24:51.824Z,14.30
2018-09-05T01:27:21.912Z,14.30
2018-09-05T01:29:52.048Z,14.30
2018-09-05T01:32:22.157Z,14.30
2018-09-05T01:34:52.240Z,14.30
2018-09-05T01:37:22.352Z,14.20
2018-09-05T01:39:53.140Z,14.20
2018-09-05T01:42:23.224Z,14.20
2018-09-05T01:44:53.300Z,14.30
2018-09-05T01:47:23.364Z,14.20
2018-09-05T01:49:53.424Z,14.20
2018-09-05T01:52:23.464Z,14.20
2018-09-05T01:54:53.593Z,14.20
2018-09-05T01:57:23.724Z,14.20
2018-09-05T01:59:54.103Z,14.20
2018-09-05T02:02:24.944Z,14.20
2018-09-05T02:04:55.879Z,14.20
2018-09-05T02:07:25.960Z,14.30
2018-09-05T02:09:56.028Z,14.30
2018-09-05T02:12:26.808Z,14.30
2018-09-05T02:14:57.036Z,14.30
2018-09-05T02:17:27.156Z,14.30
2018-09-05T02:19:57.864Z,14.30
2018-09-05T02:22:27.992Z,14.30
2018-09-05T02:24:58.065Z,14.30
2018-09-05T02:27:28.169Z,14.30
2018-09-05T02:29:58.278Z,14.30
2018-09-05T02:32:28.356Z,14.20
2018-09-05T02:34:58.414Z,14.20
2018-09-05T02:37:28.903Z,14.20
2018-09-05T02:39:59.012Z,14.20
2018-09-05T02:42:29.104Z,14.20
2018-09-05T02:44:59.152Z,14.20
2018-09-05T02:47:29.990Z,14.20
2018-09-05T02:50:00.585Z,14.20
2018-09-05T02:52:30.784Z,14.20
2018-09-05T02:55:00.864Z,14.20
2018-09-05T02:57:31.496Z,14.20
2018-09-05T03:00:01.596Z,14.20
2018-09-05T03:02:32.296Z,14.10
2018-09-05T03:05:02.372Z,14.10
2018-09-05T03:07:32.456Z,14.10
2018-09-05T03:10:02.556Z,14.10
2018-09-05T03:12:32.598Z,14.10
2018-09-05T03:15:03.016Z,14.00
2018-09-05T03:17:33.112Z,14.00
2018-09-05T03:20:03.245Z,14.00
2018-09-05T03:22:33.323Z,13.90
2018-09-05T03:25:03.892Z,13.90
2018-09-05T03:27:33.980Z,13.90
2018-09-05T03:30:04.264Z,13.90
2018-09-05T03:32:35.391Z,13.90
2018-09-05T03:35:05.514Z,13.90
2018-09-05T03:37:35.680Z,13.90
2018-09-05T03:40:06.655Z,14.00
2018-09-05T03:42:37.408Z,13.90
2018-09-05T03:45:07.568Z,13.90
2018-09-05T03:47:37.684Z,13.90
2018-09-05T03:50:09.792Z,13.90
2018-09-05T03:52:40.670Z,13.90
2018-09-05T03:55:12.110Z,13.80
2018-09-05T03:57:42.788Z,13.80
2018-09-05T04:00:13.332Z,13.80
2018-09-05T04:02:43.476Z,13.70
2018-09-05T04:05:14.236Z,13.70
2018-09-05T04:07:44.788Z,13.70
2018-09-05T04:10:15.437Z,13.70
2018-09-05T04:12:45.564Z,13.80
2018-09-05T04:15:16.369Z,13.70
2018-09-05T04:17:46.476Z,13.70
2018-09-05T04:20:16.736Z,13.80
2018-09-05T04:22:46.854Z,13.80
2018-09-05T04:25:16.974Z,13.80
2018-09-05T04:27:47.062Z,13.80
2018-09-05T04:30:17.244Z,13.80
2018-09-05T04:32:47.392Z,13.80
2018-09-05T04:35:17.609Z,13.90
2018-09-05T04:37:47.721Z,13.90
2018-09-05T04:40:18.635Z,13.80
2018-09-05T04:42:48.776Z,13.90
2018-09-05T04:45:19.114Z,13.90
2018-09-05T04:47:49.221Z,13.90
2018-09-05T04:50:19.488Z,13.90
2018-09-05T04:52:49.958Z,14.00
2018-09-05T04:55:20.080Z,13.90
2018-09-05T04:57:50.261Z,14.00
2018-09-05T05:00:20.451Z,14.00
2018-09-05T05:02:50.696Z,14.00
2018-09-05T05:05:20.897Z,14.10
2018-09-05T05:07:50.992Z,14.10
2018-09-05T05:10:21.645Z,14.20
2018-09-05T05:12:51.764Z,14.20
2018-09-05T05:15:23.196Z,14.20
2018-09-05T05:17:53.300Z,14.30
2018-09-05T05:20:24.572Z,14.30
2018-09-05T05:22:54.716Z,14.30
2018-09-05T05:25:26.444Z,14.30
2018-09-05T05:27:56.552Z,14.30
2018-09-05T05:30:27.479Z,14.40
2018-09-05T05:32:57.675Z,14.40
2018-09-05T05:35:27.792Z,14.40
2018-09-05T05:37:57.987Z,14.40
2018-09-05T05:40:29.034Z,14.50
2018-09-05T05:42:59.235Z,14.50
2018-09-05T05:45:29.346Z,14.50
2018-09-05T05:47:59.551Z,14.60
2018-09-05T05:50:29.668Z,14.60
2018-09-05T05:53:00.560Z,14.70
2018-09-05T05:55:31.286Z,14.70
2018-09-05T05:58:01.412Z,14.70
2018-09-05T06:00:31.567Z,14.80
2018-09-05T06:03:02.047Z,14.90
2018-09-05T06:05:32.156Z,14.90
2018-09-05T06:08:02.265Z,15.00
2018-09-05T06:10:32.417Z,15.10
2018-09-05T06:13:02.538Z,15.20
2018-09-05T06:15:32.723Z,15.20
2018-09-05T06:18:02.886Z,15.30
2018-09-05T06:20:33.005Z,15.40
2018-09-05T06:23:04.001Z,15.50
2018-09-05T06:25:34.116Z,15.50
2018-09-05T06:28:04.360Z,15.70
2018-09-05T06:30:35.100Z,15.70
2018-09-05T06:33:05.181Z,15.80
2018-09-05T06:35:35.922Z,15.90
2018-09-05T06:38:06.068Z,16.00
2018-09-05T06:40:36.148Z,16.10
2018-09-05T06:43:07.143Z,16.30
2018-09-05T06:45:37.257Z,16.40
2018-09-05T06:48:07.368Z,16.60
2018-09-05T06:50:37.513Z,16.80
2018-09-05T06:53:07.900Z,17.00
2018-09-05T06:55:38.000Z,17.20
2018-09-05T06:58:08.927Z,17.50
2018-09-05T07:00:39.128Z,17.60
2018-09-05T07:03:09.804Z,18.00
2018-09-05T07:05:40.732Z,18.20
2018-09-05T07:08:10.912Z,18.40
2018-09-05T07:10:42.045Z,18.60
2018-09-05T07:13:12.634Z,18.80
2018-09-05T07:15:43.316Z,18.90
2018-09-05T07:18:13.468Z,19.00
2018-09-05T07:20:45.000Z,18.90
2018-09-05T07:23:15.144Z,19.00
2018-09-05T07:25:45.238Z,19.00
2018-09-05T07:28:15.396Z,18.90
2018-09-05T07:30:45.650Z,18.90
2018-09-05T07:33:16.298Z,18.80
2018-09-05T07:35:47.109Z,18.80
2018-09-05T07:38:19.175Z,18.60
2018-09-05T07:40:49.321Z,18.60
2018-09-05T07:43:19.391Z,18.60
2018-09-05T07:45:50.037Z,18.60
2018-09-05T07:48:20.747Z,18.60
2018-09-05T07:50:50.911Z,18.70
2018-09-05T07:53:21.800Z,18.50
2018-09-05T07:55:53.404Z,18.60
2018-09-05T07:58:23.576Z,18.70
2018-09-05T08:00:53.676Z,18.80
2018-09-05T08:03:24.308Z,18.80
2018-09-05T08:05:55.016Z,18.80
2018-09-05T08:08:25.115Z,18.80
2018-09-05T08:10:55.212Z,18.80
2018-09-05T08:13:25.964Z,18.90
2018-09-05T08:15:56.863Z,19.00
2018-09-05T08:18:27.718Z,19.00
2018-09-05T08:20:57.816Z,19.00
2018-09-05T08:23:27.900Z,19.10
2018-09-05T08:25:57.950Z,19.20
2018-09-05T08:28:28.076Z,19.20
2018-09-05T08:30:58.233Z,19.20
2018-09-05T08:33:28.444Z,19.30
2018-09-05T08:35:58.966Z,19.30
2018-09-05T08:38:28.921Z,19.40
2018-09-05T08:41:02.553Z,19.40
2018-09-05T08:43:33.139Z,19.50
2018-09-05T08:46:03.504Z,19.60
2018-09-05T08:48:35.057Z,19.70
2018-09-05T08:51:05.444Z,19.80
2018-09-05T08:53:35.584Z,19.90
2018-09-05T08:56:05.891Z,19.90
2018-09-05T08:58:36.054Z,20.00
2018-09-05T09:01:07.029Z,20.00
2018-09-05T09:03:37.141Z,20.30
2018-09-05T09:06:07.429Z,20.40
2018-09-05T09:08:37.583Z,20.60
2018-09-05T09:11:08.503Z,20.80
2018-09-05T09:13:39.354Z,21.10
2018-09-05T09:16:09.740Z,21.30
2018-09-05T09:18:39.916Z,21.50
2018-09-05T09:21:10.136Z,21.70
2018-09-05T09:23:40.275Z,21.80
2018-09-05T09:26:11.252Z,21.90
2018-09-05T09:28:41.492Z,22.10
2018-09-05T09:31:12.238Z,22.10
2018-09-05T09:33:42.408Z,22.10
2018-09-05T09:36:12.557Z,22.20
2018-09-05T09:38:42.796Z,22.10
2018-09-05T09:41:13.520Z,21.80
2018-09-05T09:43:43.656Z,22.10
2018-09-05T09:46:13.758Z,22.20
2018-09-05T09:48:43.915Z,22.40
2018-09-05T09:51:15.049Z,22.60
2018-09-05T09:53:46.048Z,22.70
2018-09-05T09:56:16.173Z,22.90
2018-09-05T09:58:47.033Z,23.00
2018-09-05T10:01:23.390Z,23.30
2018-09-05T10:03:58.883Z,23.40
2018-09-05T10:06:34.352Z,23.60
2018-09-05T10:09:12.456Z,23.70
2018-09-05T10:11:47.855Z,23.70
2018-09-05T10:14:24.065Z,23.80
2018-09-05T10:16:59.503Z,23.90
2018-09-05T10:19:29.696Z,24.00
2018-09-05T10:22:00.960Z,24.00
2018-09-05T10:24:31.089Z,23.70
2018-09-05T10:27:01.207Z,23.80
2018-09-05T10:29:32.284Z,23.80
2018-09-05T10:32:02.467Z,23.90
2018-09-05T10:34:32.616Z,23.70
2018-09-05T10:37:02.784Z,23.50
2018-09-05T10:39:32.957Z,23.60
2018-09-05T10:42:03.272Z,23.40
2018-09-05T10:44:34.723Z,23.40
2018-09-05T10:47:06.024Z,23.30
2018-09-05T10:49:36.811Z,23.20
2018-09-05T10:52:08.160Z,23.10
2018-09-05T10:54:38.336Z,23.00
2018-09-05T10:57:08.463Z,23.00
2018-09-05T10:59:38.612Z,23.00
2018-09-05T11:02:08.762Z,22.80
2018-09-05T11:04:39.628Z,22.90
2018-09-05T11:07:09.768Z,23.00
2018-09-05T11:09:39.923Z,22.80
2018-09-05T11:12:11.325Z,22.80
2018-09-05T11:14:42.156Z,22.70
2018-09-05T11:17:12.348Z,22.80
2018-09-05T11:19:42.545Z,23.00
2018-09-05T11:22:13.294Z,23.10
2018-09-05T11:24:43.449Z,23.00
2018-09-05T11:27:13.605Z,23.00
2018-09-05T11:29:43.725Z,23.20
2018-09-05T11:32:13.928Z,23.20
2018-09-05T11:34:44.067Z,23.30
2018-09-05T11:37:14.193Z,23.40
2018-09-05T11:39:44.311Z,23.60
2018-09-05T11:42:14.428Z,23.80
2018-09-05T11:44:44.600Z,24.00
2018-09-05T11:47:14.767Z,23.80
2018-09-05T11:49:45.581Z,23.60
2018-09-05T11:52:15.697Z,23.40
2018-09-05T11:54:45.792Z,23.20
2018-09-05T11:57:16.444Z,23.00
2018-09-05T11:59:46.945Z,23.30
2018-09-05T12:02:17.509Z,23.50
2018-09-05T12:04:48.000Z,23.60
2018-09-05T12:07:18.198Z,23.50
2018-09-05T12:09:48.376Z,23.70
2018-09-05T12:12:19.272Z,23.10
2018-09-05T12:14:50.448Z,22.60
2018-09-05T12:17:20.628Z,22.70
2018-09-05T12:19:50.788Z,23.10
2018-09-05T12:22:21.461Z,23.40
2018-09-05T12:24:52.384Z,23.30
2018-09-05T12:27:22.577Z,22.50
2018-09-05T12:29:52.704Z,23.00
2018-09-05T12:32:22.849Z,22.70
2018-09-05T12:34:53.020Z,22.30
2018-09-05T12:37:23.120Z,22.10
2018-09-05T12:39:53.292Z,22.30
2018-09-05T12:42:23.939Z,22.40
2018-09-05T12:44:54.892Z,22.40
2018-09-05T12:47:25.602Z,22.60
2018-09-05T12:49:56.641Z,22.50
2018-09-05T12:52:27.108Z,22.30
2018-09-05T12:54:57.792Z,22.20
2018-09-05T12:57:28.149Z,21.90
2018-09-05T12:59:58.388Z,21.80
2018-09-05T13:02:28.517Z,21.60
2018-09-05T13:04:58.730Z,21.50
2018-09-05T13:07:29.009Z,21.40
2018-09-05T13:09:59.215Z,21.60
2018-09-05T13:12:29.997Z,21.90
2018-09-05T13:15:00.876Z,22.10
2018-09-05T13:17:31.594Z,21.90
2018-09-05T13:20:01.876Z,22.00
2018-09-05T13:22:32.044Z,21.70
2018-09-05T13:25:02.288Z,21.70
2018-09-05T13:27:32.630Z,21.80
2018-09-05T13:30:02.813Z,21.80
2018-09-05T13:32:32.921Z,21.90
2018-09-05T13:35:03.740Z,21.80
2018-09-05T13:37:34.185Z,21.90
2018-09-05T13:40:04.453Z,21.80
2018-09-05T13:42:35.153Z,21.70
2018-09-05T13:45:06.060Z,21.90
2018-09-05T13:47:38.553Z,21.80
2018-09-05T13:50:08.953Z,22.00
2018-09-05T13:52:39.159Z,22.10
2018-09-05T13:55:09.832Z,22.20
2018-09-05T13:57:40.013Z,22.10
2018-09-05T14:00:14.384Z,22.10
2018-09-05T14:02:45.890Z,21.70
2018-09-05T14:05:17.229Z,21.60
2018-09-05T14:07:47.344Z,21.50
2018-09-05T14:10:17.980Z,21.60
2018-09-05T14:12:48.123Z,21.80
2018-09-05T14:15:18.660Z,21.90
2018-09-05T14:17:49.044Z,22.10
2018-09-05T14:20:19.215Z,22.10
2018-09-05T14:22:49.664Z,22.00
2018-09-05T14:25:21.345Z,21.70
2018-09-05T14:27:51.481Z,21.30
2018-09-05T14:30:21.633Z,21.20
2018-09-05T14:32:51.736Z,21.30
2018-09-05T14:35:21.880Z,21.20
2018-09-05T14:37:52.099Z,21.20
2018-09-05T14:40:23.143Z,21.20
2018-09-05T14:42:54.072Z,21.30
2018-09-05T14:45:24.189Z,21.10
2018-09-05T14:47:54.297Z,20.90
2018-09-05T14:50:25.057Z,20.80
2018-09-05T14:52:55.643Z,20.70
2018-09-05T14:55:26.350Z,20.80
2018-09-05T14:57:56.463Z,20.80
2018-09-05T15:00:26.649Z,20.80
2018-09-05T15:02:58.451Z,20.60
2018-09-05T15:05:28.593Z,20.50
2018-09-05T15:07:58.697Z,20.50
2018-09-05T15:10:29.500Z,20.30
2018-09-05T15:12:59.672Z,20.10
2018-09-05T15:15:30.456Z,20.10
2018-09-05T15:18:00.552Z,20.20
2018-09-05T15:20:30.662Z,20.20
2018-09-05T15:23:00.811Z,20.10
2018-09-05T15:25:31.512Z,20.00
2018-09-05T15:28:02.780Z,19.90
2018-09-05T15:30:34.309Z,20.00
2018-09-05T15:33:04.621Z,19.90
2018-09-05T15:35:35.700Z,20.00
2018-09-05T15:38:06.373Z,20.00
2018-09-05T15:40:36.545Z,20.00
2018-09-05T15:43:06.712Z,19.90
2018-09-05T15:45:38.219Z,20.00
2018-09-05T15:48:08.377Z,19.90
2018-09-05T15:50:39.164Z,19.90
2018-09-05T15:53:09.392Z,19.90
2018-09-05T15:55:39.582Z,20.00
2018-09-05T15:58:09.847Z,20.00
2018-09-05T16:00:39.993Z,20.00
2018-09-05T16:03:10.097Z,19.90
2018-09-05T16:05:40.187Z,19.90
2018-09-05T16:08:10.324Z,19.90
2018-09-05T16:10:40.480Z,19.90
2018-09-05T16:13:11.232Z,19.90
2018-09-05T16:15:41.676Z,19.80
2018-09-05T16:18:13.316Z,19.80
2018-09-05T16:20:43.940Z,19.70
2018-09-05T16:23:15.254Z,19.70
2018-09-05T16:25:45.385Z,19.70
2018-09-05T16:28:15.492Z,19.60
2018-09-05T16:30:46.094Z,19.50
2018-09-05T16:33:16.224Z,19.50
2018-09-05T16:35:47.117Z,19.40
2018-09-05T16:38:17.728Z,19.50
2018-09-05T16:40:47.885Z,19.40
2018-09-05T16:43:18.030Z,19.40
2018-09-05T16:45:48.111Z,19.30
2018-09-05T16:48:19.393Z,19.30
2018-09-05T16:50:49.527Z,19.30
2018-09-05T16:53:19.641Z,19.20
2018-09-05T16:55:49.716Z,19.20
2018-09-05T16:58:19.971Z,19.20
2018-09-05T17:00:50.814Z,19.20
2018-09-05T17:03:21.005Z,19.10
2018-09-05T17:05:51.100Z,19.10
2018-09-05T17:08:21.189Z,18.90
2018-09-05T17:10:51.360Z,18.90
2018-09-05T17:13:21.473Z,18.90
2018-09-05T17:15:51.593Z,18.90
2018-09-05T17:18:21.796Z,18.90
2018-09-05T17:20:51.988Z,18.90
2018-09-05T17:23:22.449Z,18.90
2018-09-05T17:25:52.872Z,18.90
2018-09-05T17:28:24.672Z,18.90
2018-09-05T17:30:55.040Z,18.90
2018-09-05T17:33:25.798Z,18.90
2018-09-05T17:35:57.237Z,18.90
2018-09-05T17:38:27.913Z,18.90
2018-09-05T17:40:58.284Z,18.90
2018-09-05T17:43:28.396Z,18.80
2018-09-05T17:45:58.716Z,18.80
2018-09-05T17:48:29.102Z,18.80
2018-09-05T17:50:59.201Z,18.80
2018-09-05T17:53:29.517Z,18.70
2018-09-05T17:55:59.547Z,18.70
2018-09-05T17:58:29.612Z,18.70
2018-09-05T18:01:01.706Z,18.70
2018-09-05T18:03:31.792Z,18.60
2018-09-05T18:06:02.020Z,18.60
2018-09-05T18:08:32.088Z,18.60
2018-09-05T18:11:02.207Z,18.60
2018-09-05T18:13:32.333Z,18.60
2018-09-05T18:16:02.412Z,18.50
2018-09-05T18:18:32.548Z,18.50
2018-09-05T18:21:02.600Z,18.50
2018-09-05T18:23:32.673Z,18.50
2018-09-05T18:26:02.744Z,18.50
2018-09-05T18:28:32.852Z,18.50
2018-09-05T18:31:02.965Z,18.50
2018-09-05T18:33:33.045Z,18.50
2018-09-05T18:36:03.140Z,18.50
2018-09-05T18:38:33.237Z,18.50
2018-09-05T18:41:03.372Z,18.50
2018-09-05T18:43:33.448Z,18.40
2018-09-05T18:46:03.619Z,18.40
2018-09-05T18:48:33.656Z,18.40
2018-09-05T18:51:04.328Z,18.40
2018-09-05T18:53:34.408Z,18.30
2018-09-05T18:56:04.561Z,18.30
2018-09-05T18:58:34.755Z,18.20
2018-09-05T19:01:04.832Z,18.20
2018-09-05T19:03:34.864Z,18.10
2018-09-05T19:06:04.980Z,18.00
2018-09-05T19:08:35.037Z,18.00
2018-09-05T19:11:05.204Z,17.90
2018-09-05T19:13:35.256Z,17.80
2018-09-05T19:16:05.528Z,17.70
2018-09-05T19:18:35.584Z,17.60
2018-09-05T19:21:05.848Z,17.50
2018-09-05T19:23:35.943Z,17.50
2018-09-05T19:26:06.381Z,17.40
2018-09-05T19:28:36.456Z,17.40
2018-09-05T19:31:06.548Z,17.40
2018-09-05T19:33:36.632Z,17.30
2018-09-05T19:36:06.990Z,17.30
2018-09-05T19:38:36.961Z,17.30
2018-09-05T19:41:07.477Z,17.20
2018-09-05T19:43:37.768Z,17.20
2018-09-05T19:46:07.863Z,17.10
2018-09-05T19:48:37.939Z,17.10
2018-09-05T19:51:08.098Z,17.10
2018-09-05T19:53:38.460Z,17.00
2018-09-05T19:56:08.720Z,17.00
2018-09-05T19:58:38.788Z,16.90
2018-09-05T20:01:08.947Z,16.90
2018-09-05T20:03:39.044Z,16.90
2018-09-05T20:06:09.132Z,16.80
2018-09-05T20:08:39.937Z,16.80
2018-09-05T20:11:10.063Z,16.70
2018-09-05T20:13:40.129Z,16.70
2018-09-05T20:16:10.817Z,16.60
2018-09-05T20:18:41.013Z,16.50
2018-09-05T20:21:11.112Z,16.50
2018-09-05T20:23:41.297Z,16.40
2018-09-05T20:26:11.356Z,16.40
2018-09-05T20:28:41.516Z,16.40
2018-09-05T20:31:11.732Z,16.40
2018-09-05T20:33:41.832Z,16.30
2018-09-05T20:36:12.019Z,16.30
2018-09-05T20:38:42.092Z,16.20
2018-09-05T20:41:12.244Z,16.10
2018-09-05T20:43:42.537Z,16.10
2018-09-05T20:46:12.695Z,16.10
2018-09-05T20:48:42.772Z,16.00
2018-09-05T20:51:12.876Z,16.00
2018-09-05T20:53:42.983Z,16.00
2018-09-05T20:56:13.048Z,15.90
2018-09-05T20:58:43.176Z,15.90
2018-09-05T21:01:13.248Z,15.90
2018-09-05T21:03:44.188Z,15.90
2018-09-05T21:06:14.253Z,15.90
2018-09-05T21:08:44.483Z,15.90
2018-09-05T21:11:14.522Z,15.90
2018-09-05T21:13:44.616Z,15.90
2018-09-05T21:16:14.940Z,15.90
2018-09-05T21:18:45.000Z,15.80
2018-09-05T21:21:15.138Z,15.70
2018-09-05T21:23:45.200Z,15.70
2018-09-05T21:26:15.268Z,15.60
2018-09-05T21:28:45.383Z,15.60
2018-09-05T21:31:15.454Z,15.50
2018-09-05T21:33:45.529Z,15.50
2018-09-05T21:36:15.684Z,15.40
2018-09-05T21:38:45.847Z,15.50
2018-09-05T21:41:15.896Z,15.40
2018-09-05T21:43:45.972Z,15.30
2018-09-05T21:46:16.069Z,15.30
2018-09-05T21:48:46.692Z,15.30
2018-09-05T21:51:16.764Z,15.20
2018-09-05T21:53:47.384Z,15.20
2018-09-05T21:56:17.440Z,15.10
2018-09-05T21:58:47.488Z,15.10
2018-09-05T22:01:19.547Z,15.10
2018-09-05T22:03:51.236Z,15.10
2018-09-05T22:06:21.328Z,15.00
2018-09-05T22:08:51.400Z,15.00
2018-09-05T22:11:24.970Z,14.90
2018-09-05T22:13:55.692Z,14.90
2018-09-05T22:16:25.978Z,14.90
2018-09-05T22:18:56.080Z,14.90
2018-09-05T22:21:26.130Z,14.80
2018-09-05T22:23:56.196Z,14.80
2018-09-05T22:26:26.286Z,14.80
2018-09-05T22:28:56.380Z,14.80
2018-09-05T22:31:27.161Z,14.70
2018-09-05T22:33:57.236Z,14.70
2018-09-05T22:36:27.339Z,14.70
2018-09-05T22:38:57.385Z,14.70
2018-09-05T22:41:27.504Z,14.70
2018-09-05T22:44:08.733Z,14.70
2018-09-05T22:46:50.068Z,14.70
2018-09-05T22:52:13.594Z,14.70
2018-09-05T22:55:38.452Z,14.80
2018-09-05T22:58:23.483Z,14.90
2018-09-05T23:02:04.839Z,14.90
2018-09-05T23:04:47.377Z,15.00
2018-09-05T23:07:33.353Z,15.10
2018-09-05T23:10:14.966Z,15.10
2018-09-05T23:12:56.309Z,15.20
2018-09-05T23:15:37.461Z,15.20
2018-09-05T23:18:50.113Z,15.20
2018-09-05T23:21:24.420Z,15.30
2018-09-05T23:24:13.853Z,15.30
2018-09-05T23:26:43.936Z,15.30
2018-09-05T23:29:14.045Z,15.30
2018-09-05T23:31:44.121Z,15.30
2018-09-05T23:34:14.236Z,15.40
2018-09-05T23:36:44.319Z,15.40
2018-09-05T23:39:14.448Z,15.40
2018-09-05T23:41:44.588Z,15.40
2018-09-05T23:44:15.422Z,15.50
2018-09-05T23:46:45.485Z,15.50
2018-09-05T23:49:15.537Z,15.50
2018-09-05T23:51:45.561Z,15.50
2018-09-05T23:54:15.625Z,15.50
2018-09-05T23:56:45.808Z,15.50
2018-09-05T23:59:15.930Z,15.60
